createdAt,value
2018-09-12T00:00:02.206Z,4.20
2018-09-12T00:02:33.972Z,4.37
2018-09-12T00:05:02.248Z,4.90
2018-09-12T00:07:30.458Z,4.33
2018-09-12T00:10:01.856Z,4.50
2018-09-12T00:12:30.086Z,4.30
2018-09-12T00:14:58.346Z,4.43
2018-09-12T00:17:26.507Z,4.10
2018-09-12T00:19:54.726Z,3.93
2018-09-12T00:22:22.897Z,4.70
2018-09-12T00:24:51.378Z,4.53
2018-09-12T00:27:19.562Z,4.80
2018-09-12T00:29:47.846Z,3.80
2018-09-12T00:32:16.157Z,4.23
2018-09-12T00:34:44.338Z,4.57
2018-09-12T00:37:12.470Z,4.30
2018-09-12T00:39:40.712Z,4.30
2018-09-12T00:42:08.920Z,4.23
2018-09-12T00:44:37.054Z,4.03
2018-09-12T00:47:05.261Z,5.20
2018-09-12T00:49:33.463Z,4.63
2018-09-12T00:52:01.800Z,5.20
2018-09-12T00:54:29.990Z,4.67
2018-09-12T00:56:58.098Z,4.90
2018-09-12T00:59:26.388Z,4.70
2018-09-12T01:01:54.564Z,5.57
2018-09-12T01:04:22.810Z,4.93
2018-09-12T01:06:51.181Z,4.73
2018-09-12T01:09:19.442Z,4.83
2018-09-12T01:11:47.632Z,5.30
2018-09-12T01:14:15.804Z,4.93
2018-09-12T01:16:44.126Z,5.57
2018-09-12T01:19:12.330Z,4.93
2018-09-12T01:21:40.520Z,4.97
2018-09-12T01:24:08.654Z,4.50
2018-09-12T01:26:36.792Z,4.67
2018-09-12T01:29:05.020Z,4.93
2018-09-12T01:31:33.206Z,4.47
2018-09-12T01:34:01.314Z,5.30
2018-09-12T01:36:29.565Z,5.37
2018-09-12T01:38:57.702Z,5.30
2018-09-12T01:41:25.933Z,4.70
2018-09-12T01:43:54.052Z,5.33
2018-09-12T01:46:22.333Z,5.67
2018-09-12T01:48:50.550Z,4.63
2018-09-12T01:51:18.707Z,5.33
2018-09-12T01:53:46.983Z,5.53
2018-09-12T01:56:15.304Z,5.83
2018-09-12T01:58:43.430Z,5.30
2018-09-12T02:01:11.668Z,5.53
2018-09-12T02:03:40.008Z,5.63
2018-09-12T02:06:08.388Z,5.00
2018-09-12T02:08:36.596Z,5.23
2018-09-12T02:11:04.816Z,5.30
2018-09-12T02:13:33.092Z,5.23
2018-09-12T02:16:01.327Z,4.90
2018-09-12T02:18:29.535Z,5.47
2018-09-12T02:20:57.769Z,5.13
2018-09-12T02:23:26.071Z,4.90
2018-09-12T02:25:54.250Z,5.10
2018-09-12T02:28:22.427Z,5.13
2018-09-12T02:30:51.177Z,5.80
2018-09-12T02:33:19.470Z,5.20
2018-09-12T02:35:53.106Z,5.07
2018-09-12T02:38:21.300Z,5.00
2018-09-12T02:40:49.619Z,5.47
2018-09-12T02:43:17.887Z,5.03
2018-09-12T02:45:46.104Z,5.60
2018-09-12T02:48:14.306Z,5.53
2018-09-12T02:50:42.576Z,5.10
2018-09-12T02:53:10.926Z,5.07
2018-09-12T02:55:40.411Z,4.87
2018-09-12T02:58:08.610Z,4.80
2018-09-12T03:00:36.830Z,4.77
2018-09-12T03:03:05.054Z,5.20
2018-09-12T03:05:33.252Z,5.17
2018-09-12T03:08:01.762Z,5.00
2018-09-12T03:10:29.910Z,5.03
2018-09-12T03:12:58.044Z,4.90
2018-09-12T03:15:26.298Z,5.93
2018-09-12T03:17:54.628Z,4.73
2018-09-12T03:20:22.833Z,5.37
2018-09-12T03:22:50.932Z,4.87
2018-09-12T03:25:19.098Z,5.33
2018-09-12T03:27:47.869Z,5.60
2018-09-12T03:30:16.049Z,5.97
2018-09-12T03:32:44.221Z,5.20
2018-09-12T03:35:12.630Z,5.50
2018-09-12T03:37:40.973Z,6.60
2018-09-12T03:40:09.126Z,6.67
2018-09-12T03:42:37.285Z,6.37
2018-09-12T03:45:05.810Z,7.10
2018-09-12T03:47:34.079Z,6.17
2018-09-12T03:50:02.237Z,6.07
2018-09-12T03:52:30.397Z,5.47
2018-09-12T03:54:58.642Z,6.20
2018-09-12T03:57:26.855Z,5.87
2018-09-12T03:59:55.073Z,5.80
2018-09-12T04:02:23.295Z,6.63
2018-09-12T04:04:51.645Z,6.17
2018-09-12T04:07:20.035Z,6.30
2018-09-12T04:09:48.190Z,6.73
2018-09-12T04:12:16.350Z,6.50
2018-09-12T04:14:44.616Z,7.13
2018-09-12T04:17:12.833Z,6.73
2018-09-12T04:19:44.110Z,6.83
2018-09-12T04:22:12.305Z,7.57
2018-09-12T04:24:44.132Z,7.40
2018-09-12T04:27:12.359Z,6.63
2018-09-12T04:29:46.573Z,7.33
2018-09-12T04:32:14.791Z,7.00
2018-09-12T04:34:43.117Z,8.60
2018-09-12T04:37:11.311Z,8.37
2018-09-12T04:39:46.371Z,8.17
2018-09-12T04:42:14.576Z,7.13
2018-09-12T04:44:42.780Z,7.60
2018-09-12T04:47:11.048Z,9.47
2018-09-12T04:49:39.478Z,7.17
2018-09-12T04:52:07.695Z,8.03
2018-09-12T04:54:35.885Z,7.70
2018-09-12T04:57:04.117Z,8.23
2018-09-12T04:59:32.673Z,7.70
2018-09-12T05:02:00.855Z,8.17
2018-09-12T05:04:29.000Z,8.53
2018-09-12T05:06:57.125Z,8.17
2018-09-12T05:09:25.474Z,8.20
2018-09-12T05:11:53.739Z,7.83
2018-09-12T05:14:21.880Z,8.23
2018-09-12T05:16:50.085Z,7.80
2018-09-12T05:19:18.864Z,7.83
2018-09-12T05:21:47.130Z,7.03
2018-09-12T05:24:16.698Z,7.37
2018-09-12T05:26:44.973Z,7.10
2018-09-12T05:29:13.179Z,7.80
2018-09-12T05:31:41.404Z,7.37
2018-09-12T05:34:09.577Z,7.10
2018-09-12T05:36:38.032Z,7.80
2018-09-12T05:39:07.952Z,5.97
2018-09-12T05:41:36.179Z,6.80
2018-09-12T05:44:04.621Z,6.80
2018-09-12T05:46:33.505Z,5.73
2018-09-12T05:49:01.910Z,5.37
2018-09-12T05:51:30.081Z,5.57
2018-09-12T05:53:58.439Z,6.70
2018-09-12T05:56:26.592Z,5.93
2018-09-12T05:58:54.833Z,6.33
2018-09-12T06:01:23.133Z,6.43
2018-09-12T06:03:51.942Z,6.63
2018-09-12T06:06:20.180Z,6.73
2018-09-12T06:08:48.355Z,6.67
2018-09-12T06:11:16.679Z,6.93
2018-09-12T06:13:45.109Z,7.10
2018-09-12T06:16:13.262Z,6.30
2018-09-12T06:18:41.417Z,6.67
2018-09-12T06:21:09.882Z,6.30
2018-09-12T06:23:38.235Z,6.80
2018-09-12T06:26:06.572Z,6.53
2018-09-12T06:28:34.746Z,6.13
2018-09-12T06:31:05.617Z,7.43
2018-09-12T06:33:34.674Z,8.00
2018-09-12T06:36:04.026Z,7.47
2018-09-12T06:38:32.296Z,6.70
2018-09-12T06:41:00.606Z,7.00
2018-09-12T06:43:28.816Z,6.43
2018-09-12T06:46:04.700Z,6.40
2018-09-12T06:48:38.791Z,5.70
2018-09-12T06:51:06.997Z,7.13
2018-09-12T06:53:35.254Z,7.05
2018-09-12T06:56:07.134Z,6.00
2018-09-12T06:58:38.849Z,7.08
2018-09-12T07:01:10.795Z,6.05
2018-09-12T07:03:40.046Z,6.30
2018-09-12T07:06:11.617Z,5.85
2018-09-12T07:08:40.378Z,6.60
2018-09-12T07:11:08.687Z,5.95
2018-09-12T07:13:43.148Z,5.90
2018-09-12T07:16:11.396Z,6.97
2018-09-12T07:18:43.252Z,7.30
2018-09-12T07:21:12.849Z,6.78
2018-09-12T07:23:44.512Z,6.50
2018-09-12T07:26:14.312Z,6.60
2018-09-12T07:28:44.128Z,6.37
2018-09-12T07:31:14.008Z,6.85
2018-09-12T07:33:45.872Z,6.83
2018-09-12T07:36:15.390Z,5.72
2018-09-12T07:38:46.890Z,6.35
2018-09-12T07:41:15.863Z,6.00
2018-09-12T07:43:44.114Z,6.65
2018-09-12T07:46:18.376Z,7.15
2018-09-12T07:48:46.568Z,6.40
2018-09-12T07:51:14.715Z,5.97
2018-09-12T07:53:50.704Z,6.03
2018-09-12T07:56:19.094Z,6.20
2018-09-12T07:58:49.167Z,6.70
2018-09-12T08:01:19.144Z,7.47
2018-09-12T08:03:47.483Z,6.53
2018-09-12T08:06:21.230Z,5.83
2018-09-12T08:08:51.414Z,6.58
2018-09-12T08:11:20.321Z,7.72
2018-09-12T08:13:52.233Z,8.58
2018-09-12T08:16:20.572Z,7.28
2018-09-12T08:18:52.225Z,7.30
2018-09-12T08:24:21.838Z,6.40
2018-09-12T08:26:52.956Z,6.58
2018-09-12T08:29:24.401Z,6.28
2018-09-12T08:31:54.165Z,5.90
2018-09-12T08:34:25.956Z,6.67
2018-09-12T08:36:55.579Z,7.17
2018-09-12T08:39:25.224Z,6.13
2018-09-12T08:41:56.293Z,7.20
2018-09-12T08:44:25.564Z,6.90
2018-09-12T08:46:57.195Z,7.90
2018-09-12T08:49:26.605Z,7.07
2018-09-12T08:51:56.903Z,6.50
2018-09-12T08:54:28.835Z,8.20
2018-09-12T08:56:57.368Z,7.80
2018-09-12T09:23:53.726Z,7.27
2018-09-12T09:26:28.336Z,7.37
2018-09-12T09:29:01.731Z,7.37
2018-09-12T09:31:33.462Z,7.40
2018-09-12T09:34:05.226Z,6.07
2018-09-12T09:36:34.240Z,5.93
2018-09-12T09:39:07.839Z,7.33
2018-09-12T09:41:36.102Z,6.97
2018-09-12T09:44:06.533Z,7.27
2018-09-12T09:46:35.876Z,7.37
2018-09-12T09:49:06.728Z,6.40
2018-09-12T09:51:37.606Z,7.83
2018-09-12T09:54:07.432Z,6.97
2018-09-12T09:56:37.125Z,7.00
2018-09-12T09:59:08.016Z,5.93
2018-09-12T10:12:40.661Z,6.10
2018-09-12T10:15:10.377Z,6.07
2018-09-12T10:21:07.014Z,5.67
2018-09-12T10:23:40.601Z,5.73
2018-09-12T10:26:12.318Z,5.77
2018-09-12T10:28:42.887Z,4.83
2018-09-12T10:31:12.558Z,5.47
2018-09-12T10:33:42.780Z,5.70
2018-09-12T10:36:13.617Z,5.70
2018-09-12T10:38:43.740Z,5.57
2018-09-12T10:41:13.023Z,5.50
2018-09-12T10:43:44.691Z,6.07
2018-09-12T10:46:16.840Z,5.30
2018-09-12T10:48:45.255Z,5.50
2018-09-12T10:51:17.123Z,5.33
2018-09-12T10:53:46.379Z,5.80
2018-09-12T10:56:17.203Z,6.00
2018-09-12T10:58:46.913Z,5.20
2018-09-12T11:01:18.973Z,5.07
2018-09-12T11:03:48.207Z,5.73
2018-09-12T11:06:18.298Z,5.37
2018-09-12T11:08:49.980Z,5.03
2018-09-12T11:11:19.584Z,5.07
2018-09-12T11:13:50.128Z,4.97
2018-09-12T11:16:20.166Z,5.20
2018-09-12T11:18:50.901Z,5.30
2018-09-12T11:21:20.709Z,4.87
2018-09-12T11:23:51.946Z,4.80
2018-09-12T11:26:21.884Z,5.83
2018-09-12T11:28:52.758Z,4.83
2018-09-12T11:31:22.206Z,4.63
2018-09-12T11:33:53.800Z,4.63
2018-09-12T11:36:23.460Z,5.20
2018-09-12T11:38:53.663Z,5.37
2018-09-12T11:41:24.908Z,4.50
2018-09-12T11:43:54.690Z,4.77
2018-09-12T11:46:24.682Z,4.90
2018-09-12T11:48:55.099Z,4.70
2018-09-12T11:51:27.111Z,4.33
2018-09-12T11:53:56.073Z,3.90
2018-09-12T11:56:27.570Z,4.43
2018-09-12T11:58:57.368Z,4.23
2018-09-12T12:01:28.685Z,4.30
2018-09-12T12:03:57.885Z,3.73
2018-09-12T12:06:26.544Z,3.77
2018-09-12T12:09:00.120Z,3.63
2018-09-12T12:11:28.442Z,3.27
2018-09-12T12:13:56.961Z,3.33
2018-09-12T12:16:25.256Z,3.50
2018-09-12T12:18:53.496Z,3.73
2018-09-12T12:21:31.392Z,2.63
2018-09-12T12:24:00.723Z,3.30
2018-09-12T12:26:32.129Z,3.17
2018-09-12T12:29:01.952Z,3.53
2018-09-12T12:31:33.514Z,3.37
2018-09-12T12:34:01.917Z,3.60
2018-09-12T12:37:04.591Z,3.13
2018-09-12T12:39:33.336Z,3.30
2018-09-12T12:42:05.352Z,3.13
2018-09-12T12:44:33.767Z,2.90
2018-09-12T12:47:05.461Z,3.20
2018-09-12T12:49:35.139Z,3.00
2018-09-12T12:52:06.354Z,3.13
2018-09-12T12:54:35.919Z,3.00
2018-09-12T12:57:07.618Z,2.63
2018-09-12T12:59:37.926Z,3.00
2018-09-12T13:02:07.080Z,3.10
2018-09-12T13:04:35.911Z,3.33
2018-09-12T13:07:08.132Z,2.50
2018-09-12T13:09:39.713Z,2.90
2018-09-12T13:12:08.492Z,2.77
2018-09-12T13:14:36.877Z,3.27
2018-09-12T13:17:10.361Z,3.00
2018-09-12T13:19:39.549Z,3.23
2018-09-12T13:22:10.813Z,3.10
2018-09-12T13:24:39.912Z,3.03
2018-09-12T13:27:08.369Z,3.10
2018-09-12T13:29:41.711Z,2.50
2018-09-12T13:32:11.580Z,2.93
2018-09-12T13:34:45.496Z,3.27
2018-09-12T13:37:13.738Z,3.20
2018-09-12T13:39:42.021Z,3.07
2018-09-12T13:42:13.890Z,3.13
2018-09-12T13:44:43.592Z,2.97
2018-09-12T13:47:15.410Z,3.27
2018-09-12T13:49:43.678Z,3.13
2018-09-12T13:52:15.518Z,2.90
2018-09-12T13:54:45.944Z,3.50
2018-09-12T13:57:16.511Z,3.37
2018-09-12T13:59:44.751Z,3.60
2018-09-12T14:02:17.005Z,2.90
2018-09-12T14:04:47.125Z,3.10
2018-09-12T14:07:15.614Z,3.20
2018-09-12T14:09:45.532Z,2.90
2018-09-12T14:12:20.354Z,3.20
2018-09-12T14:14:48.999Z,3.20
2018-09-12T14:17:20.423Z,4.50
2018-09-12T14:19:49.151Z,3.50
2018-09-12T14:22:20.742Z,3.23
2018-09-12T14:24:49.228Z,3.30
2018-09-12T14:27:17.966Z,3.30
2018-09-12T14:29:51.990Z,3.53
2018-09-12T14:32:22.661Z,3.00
2018-09-12T14:34:52.233Z,3.57
2018-09-12T14:37:22.102Z,3.10
2018-09-12T14:39:53.896Z,3.57
2018-09-12T14:42:24.379Z,3.63
2018-09-12T14:48:23.872Z,3.13
2018-09-12T15:04:40.090Z,3.27
2018-09-12T15:07:13.727Z,3.30
2018-09-12T15:24:42.808Z,3.27
2018-09-12T15:42:33.835Z,3.00
2018-09-12T15:45:03.427Z,3.67
2018-09-12T15:47:31.700Z,3.33
2018-09-12T15:49:59.916Z,3.50
2018-09-12T15:55:02.241Z,3.67
2018-09-12T15:57:36.332Z,3.10
2018-09-12T16:00:05.992Z,3.20
2018-09-12T16:02:36.070Z,3.13
2018-09-12T16:05:07.413Z,3.63
2018-09-12T16:07:37.165Z,3.27
2018-09-12T16:10:06.874Z,3.30
2018-09-12T16:12:36.154Z,3.57
2018-09-12T16:15:07.538Z,3.20
2018-09-12T16:17:39.183Z,3.13
2018-09-12T16:20:07.494Z,3.00
2018-09-12T16:22:38.715Z,3.03
2018-09-12T16:25:09.986Z,3.17
2018-09-12T16:27:40.041Z,3.10
2018-09-12T16:30:08.437Z,3.10
2018-09-12T16:32:42.102Z,3.37
2018-09-12T16:35:10.721Z,3.07
2018-09-12T16:37:38.924Z,3.07
2018-09-12T16:40:07.270Z,3.37
2018-09-12T16:42:35.451Z,3.00
2018-09-12T16:45:03.748Z,3.07
2018-09-12T16:47:31.951Z,2.90
2018-09-12T16:50:00.211Z,3.37
2018-09-12T16:52:29.461Z,3.33
2018-09-12T16:54:58.927Z,3.20
2018-09-12T16:57:42.807Z,3.27
2018-09-12T17:00:10.946Z,3.57
2018-09-12T17:02:39.068Z,3.40
2018-09-12T17:05:07.268Z,2.97
2018-09-12T17:07:35.402Z,3.43
2018-09-12T17:10:03.738Z,3.23
2018-09-12T17:12:31.923Z,3.37
2018-09-12T17:15:00.374Z,3.43
2018-09-12T17:17:28.586Z,3.43
2018-09-12T17:19:56.720Z,3.37
2018-09-12T17:22:25.038Z,3.87
2018-09-12T17:24:53.475Z,3.60
2018-09-12T17:27:21.923Z,3.13
2018-09-12T17:29:50.376Z,3.37
2018-09-12T17:32:18.559Z,3.93
2018-09-12T17:34:46.734Z,2.87
2018-09-12T17:37:15.066Z,3.50
2018-09-12T17:39:43.376Z,3.30
2018-09-12T17:42:11.599Z,3.60
2018-09-12T17:44:39.828Z,3.83
2018-09-12T17:47:08.621Z,3.57
2018-09-12T17:49:36.790Z,3.60
2018-09-12T17:52:05.301Z,3.70
2018-09-12T17:54:33.923Z,3.93
2018-09-12T17:57:02.140Z,4.00
2018-09-12T17:59:30.347Z,3.50
2018-09-12T18:01:58.661Z,3.77
2018-09-12T18:04:27.180Z,3.87
2018-09-12T18:06:56.248Z,4.13
2018-09-12T18:09:25.030Z,3.53
2018-09-12T18:11:53.324Z,3.67
2018-09-12T18:14:22.279Z,3.90
2018-09-12T18:16:50.814Z,3.47
2018-09-12T18:19:19.007Z,3.53
2018-09-12T18:21:47.247Z,4.30
2018-09-12T18:24:15.489Z,4.07
2018-09-12T18:26:43.680Z,4.20
2018-09-12T18:29:12.113Z,4.03
2018-09-12T18:31:40.274Z,3.77
2018-09-12T18:34:08.415Z,3.80
2018-09-12T18:36:36.658Z,4.07
2018-09-12T18:41:49.675Z,4.30
2018-09-12T18:44:17.833Z,4.07
2018-09-12T18:49:31.638Z,4.63
2018-09-12T18:52:00.773Z,4.50
2018-09-12T18:54:29.138Z,4.87
2018-09-12T18:57:01.003Z,4.67
2018-09-12T18:59:31.315Z,4.80
2018-09-12T19:01:59.493Z,4.43
2018-09-12T19:04:27.671Z,5.17
2018-09-12T19:06:55.953Z,4.50
2018-09-12T19:09:24.570Z,4.53
2018-09-12T19:11:53.146Z,3.93
2018-09-12T19:14:21.315Z,4.57
2018-09-12T19:16:49.443Z,4.47
2018-09-12T19:19:17.652Z,4.47
2018-09-12T19:21:46.460Z,4.50
2018-09-12T19:24:15.539Z,4.93
2018-09-12T19:26:43.847Z,4.47
2018-09-12T19:29:12.092Z,4.27
2018-09-12T19:31:40.529Z,4.17
2018-09-12T19:34:09.508Z,4.77
2018-09-12T19:36:38.694Z,4.60
2018-09-12T19:39:07.333Z,4.63
2018-09-12T19:41:35.599Z,5.07
2018-09-12T19:44:04.166Z,4.67
2018-09-12T19:46:32.342Z,4.73
2018-09-12T19:49:00.579Z,4.73
2018-09-12T19:51:28.808Z,4.67
2018-09-12T19:53:57.035Z,5.00
2018-09-12T19:56:25.295Z,5.17
2018-09-12T19:58:53.487Z,4.77
2018-09-12T20:01:21.672Z,5.70
2018-09-12T20:03:49.891Z,5.60
2018-09-12T20:06:18.241Z,5.30
2018-09-12T20:08:46.577Z,5.77
2018-09-12T20:11:14.835Z,5.20
2018-09-12T20:13:43.061Z,5.17
2018-09-12T20:16:11.544Z,5.17
2018-09-12T20:18:39.640Z,5.60
2018-09-12T20:21:07.965Z,5.67
2018-09-12T20:23:36.175Z,5.13
2018-09-12T20:26:05.457Z,5.70
2018-09-12T20:28:37.928Z,5.20
2018-09-12T20:31:06.739Z,4.67
2018-09-12T20:33:35.148Z,4.93
2018-09-12T20:36:06.684Z,5.37
2018-09-12T20:38:34.896Z,4.87
2018-09-12T20:41:03.202Z,4.80
2018-09-12T20:43:31.366Z,4.83
2018-09-12T20:45:59.931Z,4.97
2018-09-12T20:48:28.367Z,4.33
2018-09-12T20:50:57.323Z,4.47
2018-09-12T20:53:28.597Z,4.20
2018-09-12T20:55:58.150Z,4.43
2018-09-12T20:58:26.296Z,5.23
2018-09-12T21:00:54.449Z,4.40
2018-09-12T21:03:22.672Z,4.13
2018-09-12T21:05:50.987Z,4.37
2018-09-12T21:08:19.187Z,4.10
2018-09-12T21:10:47.526Z,3.80
2018-09-12T21:13:15.777Z,4.30
2018-09-12T21:15:44.028Z,4.17
2018-09-12T21:18:12.318Z,4.70
2018-09-12T21:20:40.680Z,4.03
2018-09-12T21:23:11.723Z,4.60
2018-09-12T21:25:40.281Z,4.80
2018-09-12T21:28:08.475Z,4.00
2018-09-12T21:30:36.653Z,4.73
2018-09-12T21:33:05.414Z,4.30
2018-09-12T21:35:33.680Z,4.60
2018-09-12T21:38:02.049Z,5.00
2018-09-12T21:40:30.438Z,4.37
2018-09-12T21:42:58.664Z,4.57
2018-09-12T21:45:26.993Z,4.20
2018-09-12T21:47:56.015Z,4.63
2018-09-12T21:50:24.417Z,4.90
2018-09-12T21:52:52.832Z,4.60
2018-09-12T21:55:23.914Z,4.13
2018-09-12T21:57:52.224Z,4.57
2018-09-12T22:00:20.421Z,4.47
2018-09-12T22:02:48.612Z,4.73
2018-09-12T22:05:16.825Z,4.83
2018-09-12T22:07:45.031Z,4.10
2018-09-12T22:10:13.346Z,4.73
2018-09-12T22:12:41.819Z,5.23
2018-09-12T22:15:10.234Z,6.13
2018-09-12T22:17:38.533Z,5.27
2018-09-12T22:20:06.790Z,4.73
2018-09-12T22:22:35.035Z,4.80
2018-09-12T22:25:03.290Z,4.77
2018-09-12T22:27:31.549Z,4.10
2018-09-12T22:30:00.024Z,4.70
2018-09-12T22:32:28.520Z,4.33
2018-09-12T22:34:56.685Z,4.40
2018-09-12T22:37:24.845Z,4.73
2018-09-12T22:39:53.019Z,4.33
2018-09-12T22:42:21.220Z,4.23
2018-09-12T22:44:49.500Z,4.60
2018-09-12T22:47:17.647Z,3.77
2018-09-12T22:49:45.885Z,4.83
2018-09-12T22:52:14.170Z,5.10
2018-09-12T22:54:42.510Z,4.97
2018-09-12T22:57:10.751Z,5.77
2018-09-12T22:59:39.049Z,5.67
2018-09-12T23:02:07.416Z,5.30
2018-09-12T23:04:35.615Z,5.53
2018-09-12T23:07:04.019Z,6.03
2018-09-12T23:09:32.345Z,5.83
2018-09-12T23:12:00.585Z,5.20
2018-09-12T23:14:28.859Z,5.07
2018-09-12T23:16:57.133Z,5.00
2018-09-12T23:19:25.265Z,5.67
2018-09-12T23:21:53.423Z,5.70
2018-09-12T23:24:21.647Z,5.73
2018-09-12T23:26:49.869Z,5.90
2018-09-12T23:29:18.259Z,5.83
2018-09-12T23:31:46.534Z,5.93
2018-09-12T23:34:14.723Z,5.33
2018-09-12T23:36:42.835Z,5.53
2018-09-12T23:39:13.091Z,5.73
2018-09-12T23:41:41.839Z,5.40
2018-09-12T23:44:10.681Z,5.83
2018-09-12T23:46:38.901Z,5.80
2018-09-12T23:49:07.795Z,6.40
2018-09-12T23:51:35.913Z,6.20
2018-09-12T23:54:04.241Z,6.40
2018-09-12T23:56:32.501Z,5.70
2018-09-12T23:59:00.820Z,6.00
